• Join FlightAware (Why Join?)
  • Login
  • US Flag 
05:45AM EDT


 

Airport Tracker/Info


-or-


 

Live Flight TrackerFlight Track Log ✈ N3066W ✈ 03-May-2013 ✈ KPSP - KCCR

Flight Track Log - Related Links

Times and Time Zones

All times are in EDT time to prevent confusion due to time zone crossing. See the N3066W flight status page for this flight to view local times or setup timezone preferences in your user account.

Time Position Orientation Groundspeed Altitude Reporting Facility
EDT Latitude Longitude Course Direction KTS MPH feet Rate Location/Type
02:58PM 33.9769 -116.7564 314° West 183 211 12,500  Level Los Angeles Center
02:59PM 34.0075 -116.8175 301° West 212 244 12,600 480 Climbing Los Angeles Center
03:00PM 34.0431 -116.8744 307° West 213 245 13,600 960 Climbing Los Angeles Center
03:01PM 34.0689 -116.9236 302° West 179 206 14,700 840 Climbing Los Angeles Center
03:02PM 34.0947 -116.9736 302° West 177 204 15,400 780 Climbing Los Angeles Center
03:03PM 34.4300 -117.2531 314° West  Level Estimated
03:03PM 34.1264 -117.0269 306° West 175 201 16,400  Level Los Angeles Center
03:04PM 34.1581 -117.0783 307° West 189 217 16,600  Climbing Los Angeles Center
03:05PM 34.1903 -117.1386 303° West 212 244 16,500  Descending Los Angeles Center
03:06PM 34.2264 -117.2033 304° West 216 249 16,600  Climbing Los Angeles Center
03:07PM 34.2625 -117.2636 306° West 220 253 16,600  Level Los Angeles Center
03:08PM 34.3053 -117.3378 305° West 224 258 16,600  Level Los Angeles Center
03:09PM 34.3464 -117.4136 303° West 225 259 16,600  Level Los Angeles Center
03:10PM 34.3822 -117.4764 305° West 227 261 16,600  Level Los Angeles Center
03:11PM 34.4147 -117.5378 303° West 224 258 16,700  Climbing Los Angeles Center
03:13PM 34.4497 -117.6003 304° West 225 259 16,700  Level Los Angeles Center
03:14PM 34.4844 -117.6628 304° West 223 257 16,700  Level Los Angeles Center
03:15PM 34.5269 -117.7383 304° West 226 260 16,700  Level Los Angeles Center
03:16PM 34.5622 -117.8011 304° West 225 259 16,700  Level Los Angeles Center
03:17PM 34.5969 -117.8636 304° West 223 257 16,700  Level Los Angeles Center
03:18PM 34.6322 -117.9267 304° West 225 259 16,700  Level Los Angeles Center
03:19PM 34.6667 -117.9894 304° West 224 258 16,700  Level Los Angeles Center
03:20PM 34.7011 -118.0514 304° West 222 255 16,800  Climbing Los Angeles Center
03:21PM 34.7431 -118.1258 304° West 223 257 16,800 -120 Level Los Angeles Center
03:22PM 34.7786 -118.1914 303° West 228 262 16,600 -120 Descending Los Angeles Center
03:23PM 34.8136 -118.2556 304° West 229 264 16,600  Level Los Angeles Center
03:24PM 34.8556 -118.3289 305° West 221 254 16,600  Level Los Angeles Center
03:25PM 34.9031 -118.3794 319° Northwest 226 260 16,600  Level Los Angeles Center
03:26PM 34.9492 -118.4317 317° Northwest 224 258 16,600  Level Los Angeles Center
03:27PM 34.9858 -118.4733 317° Northwest 225 259 16,600  Level Los Angeles Center
03:28PM 35.0492 -118.5436 318° Northwest 223 257 16,600  Level Los Angeles Center
03:29PM 35.0958 -118.5958 318° Northwest 226 260 16,600  Level Los Angeles Center
03:30PM 35.1414 -118.6486 317° Northwest 226 260 16,600 -60 Level Los Angeles Center
03:31PM 35.1886 -118.7000 318° Northwest 227 261 16,500 -60 Descending Los Angeles Center
03:33PM 35.2525 -118.7733 317° Northwest 226 260 16,500  Level Los Angeles Center
03:34PM 35.2983 -118.8250 317° Northwest 224 258 16,500  Level Los Angeles Center
03:35PM 35.3428 -118.8761 317° Northwest 221 254 16,500  Level Los Angeles Center
03:36PM 35.3883 -118.9278 317° Northwest 222 255 16,500  Level Los Angeles Center
03:37PM 35.4347 -118.9814 317° Northwest 228 262 16,500  Level Los Angeles Center
03:38PM 35.4872 -119.0431 316° Northwest 220 253 16,500  Level Los Angeles Center
03:39PM 35.5319 -119.0936 317° Northwest 220 253 16,500  Level Los Angeles Center
03:40PM 35.5778 -119.1453 317° Northwest 223 257 16,500  Level Los Angeles Center
03:41PM 35.6217 -119.1978 316° Northwest 222 255 16,500  Level Los Angeles Center
03:42PM 35.6583 -119.2389 318° Northwest 225 259 16,500  Level Oakland Center
03:43PM 35.7022 -119.2908 316° Northwest 222 255 16,500  Level Oakland Center
03:44PM 35.7481 -119.3442 317° Northwest 225 259 16,500  Level Oakland Center
03:45PM 35.7931 -119.3967 317° Northwest 225 259 16,500  Level Oakland Center
03:46PM 35.8378 -119.4492 316° Northwest 223 257 16,600  Climbing Oakland Center
03:47PM 35.8833 -119.5025 317° Northwest 226 260 16,600  Level Oakland Center
03:48PM 35.9383 -119.5664 317° Northwest 227 261 16,600  Level Oakland Center
03:49PM 35.9836 -119.6186 317° Northwest 227 261 16,600  Level Oakland Center
03:50PM 36.0283 -119.6697 317° Northwest 220 253 16,600  Level Oakland Center
03:51PM 36.0747 -119.7228 317° Northwest 228 262 16,600  Level Oakland Center
03:52PM 36.1206 -119.7767 316° Northwest 229 264 16,600  Level Oakland Center
03:53PM 36.1661 -119.8303 316° Northwest 227 261 16,600  Level Oakland Center
03:54PM 36.2119 -119.8844 316° Northwest 228 262 16,600  Level Oakland Center
03:55PM 36.2661 -119.9489 316° Northwest 226 260 16,600  Level Oakland Center
03:56PM 36.3117 -120.0019 317° Northwest 225 259 16,600  Level Oakland Center
03:57PM 36.3564 -120.0561 316° Northwest 225 259 16,600  Level Oakland Center
03:58PM 36.4011 -120.1100 316° Northwest 225 259 16,600  Level Oakland Center
03:59PM 36.4467 -120.1642 316° Northwest 227 261 16,600  Level Oakland Center
04:00PM 36.4925 -120.2192 316° Northwest 230 265 16,600  Level Oakland Center
04:01PM 36.5381 -120.2733 316° Northwest 229 264 16,600  Level Oakland Center
04:02PM 36.5917 -120.3386 316° Northwest 225 259 16,600  Level Oakland Center
04:03PM 36.6364 -120.3931 316° Northwest 226 260 16,600  Level Oakland Center
04:04PM 36.6814 -120.4469 316° Northwest 226 260 16,600  Level Oakland Center
04:05PM 36.7264 -120.5008 316° Northwest 224 258 16,600  Level Oakland Center
04:06PM 36.7717 -120.5561 316° Northwest 228 262 16,600  Level Oakland Center
04:07PM 36.8225 -120.6183 316° Northwest 227 261 16,600  Level Oakland Center
04:08PM 36.8617 -120.6658 316° Northwest 227 261 16,600  Level Oakland Center
04:09PM 36.9161 -120.7317 316° Northwest 227 261 16,600  Level Oakland Center
04:10PM 36.9619 -120.7861 317° Northwest 228 262 16,600  Level Oakland Center
04:11PM 37.0075 -120.8403 316° Northwest 227 261 16,600  Level Oakland Center
04:12PM 37.0528 -120.8953 316° Northwest 227 261 16,600  Level Oakland Center
04:13PM 37.0969 -120.9500 315° West 224 258 16,600  Level Oakland Center
04:14PM 37.1414 -121.0031 316° Northwest 222 255 16,600  Level Oakland Center
04:16PM 37.1867 -121.0539 318° Northwest 220 253 16,600 -240 Level Oakland Center
04:17PM 37.2317 -121.1114 315° West 228 262 16,200 -720 Descending Oakland Center
04:18PM 37.2908 -121.1842 316° Northwest 248 285 15,200 -900 Descending Oakland Center
04:19PM 37.3408 -121.2453 316° Northwest 250 288 14,400 -780 Descending Oakland Center
04:20PM 37.3897 -121.3056 316° Northwest 254 292 13,700 -660 Descending Oakland Center
04:21PM 37.4500 -121.3833 314° West 243 280 13,100 -840 Descending Northern Cal TRACON
04:22PM 37.5000 -121.4500 313° West 254 292 12,000 -1,020 Descending Northern Cal TRACON
04:23PM 37.5333 -121.5000 310° West 246 283 11,100 -1,020 Descending Northern Cal TRACON
04:24PM 37.5833 -121.5667 313° West 237 273 10,100 -1,020 Descending Northern Cal TRACON
04:25PM 37.6167 -121.6333 302° West 234 269 9,100 -1,020 Descending Northern Cal TRACON
04:26PM 37.6667 -121.6833 322° Northwest 238 274 8,100 -960 Descending Northern Cal TRACON
04:27PM 37.7167 -121.7500 313° West 233 268 7,200 -900 Descending Northern Cal TRACON
04:28PM 37.7500 -121.8167 302° West 234 269 6,400 -900 Descending Northern Cal TRACON
04:29PM 37.8000 -121.8667 322° Northwest 215 247 5,400 -600 Descending Northern Cal TRACON
04:30PM 37.8328 -121.9242 306° West 219 252 5,100 -300 Descending Oakland Center
04:32PM 37.9138 -121.9795 314° West  Level FlightAware Approximate
04:39PM 37.9833 -122.0500 322° Northwest  Level FlightAware Approximate
04:40PM 37.9897 -122.0569 322° Northwest  Level Estimated
04:41PM 37.9897 -122.0569 322° Northwest  Level Estimated
04:42PM 37.9897 -122.0569 322° Northwest  Level Estimated
04:43PM 37.9897 -122.0569 322° Northwest  Level Estimated
04:44PM 37.9897 -122.0569 322° Northwest  Level Estimated